sensor_id;sensor_type;location;lat;lon;timestamp;temperature;humidity
25320;DHT22;13256;49.012;8.610;2023-12-04T00:03:09;-3.80;99.90
25320;DHT22;13256;49.012;8.610;2023-12-04T00:09:00;-4.00;99.90
25320;DHT22;13256;49.012;8.610;2023-12-04T00:11:31;-4.00;99.90
25320;DHT22;13256;49.012;8.610;2023-12-04T00:16:48;-4.10;99.90
25320;DHT22;13256;49.012;8.610;2023-12-04T00:19:18;-4.10;99.90
25320;DHT22;13256;49.012;8.610;2023-12-04T00:24:35;-4.00;99.90
25320;DHT22;13256;49.012;8.610;2023-12-04T00:42:08;-3.80;99.90
25320;DHT22;13256;49.012;8.610;2023-12-04T01:08:42;-3.80;99.90
25320;DHT22;13256;49.012;8.610;2023-12-04T01:14:16;-3.80;99.90
25320;DHT22;13256;49.012;8.610;2023-12-04T01:22:38;-3.90;99.90
25320;DHT22;13256;49.012;8.610;2023-12-04T01:25:06;-3.90;99.90
25320;DHT22;13256;49.012;8.610;2023-12-04T01:42:47;-3.70;99.90
25320;DHT22;13256;49.012;8.610;2023-12-04T01:49:00;-3.60;99.90
25320;DHT22;13256;49.012;8.610;2023-12-04T01:51:39;-3.60;99.90
25320;DHT22;13256;49.012;8.610;2023-12-04T01:59:46;-3.50;99.90
25320;DHT22;13256;49.012;8.610;2023-12-04T02:02:13;-3.50;99.90
25320;DHT22;13256;49.012;8.610;2023-12-04T02:07:43;-3.60;99.90
25320;DHT22;13256;49.012;8.610;2023-12-04T02:15:23;-3.70;99.90
25320;DHT22;13256;49.012;8.610;2023-12-04T02:29:11;-3.80;99.90
25320;DHT22;13256;49.012;8.610;2023-12-04T02:34:46;-3.90;99.90
25320;DHT22;13256;49.012;8.610;2023-12-04T02:40:20;-3.90;99.90
25320;DHT22;13256;49.012;8.610;2023-12-04T02:45:36;-4.00;99.90
25320;DHT22;13256;49.012;8.610;2023-12-04T03:12:30;-3.80;99.90
25320;DHT22;13256;49.012;8.610;2023-12-04T03:29:18;-3.20;99.90
25320;DHT22;13256;49.012;8.610;2023-12-04T03:47:19;-2.70;99.90
25320;DHT22;13256;49.012;8.610;2023-12-04T03:49:46;-2.70;99.90
25320;DHT22;13256;49.012;8.610;2023-12-04T04:06:43;-2.50;99.90
25320;DHT22;13256;49.012;8.610;2023-12-04T04:33:28;-2.30;99.90
25320;DHT22;13256;49.012;8.610;2023-12-04T04:51:06;-2.40;99.90
25320;DHT22;13256;49.012;8.610;2023-12-04T04:53:33;-2.40;99.90
25320;DHT22;13256;49.012;8.610;2023-12-04T04:56:00;-2.40;99.90
25320;DHT22;13256;49.012;8.610;2023-12-04T04:58:30;-2.40;99.90
25320;DHT22;13256;49.012;8.610;2023-12-04T05:21:22;-2.20;99.90
25320;DHT22;13256;49.012;8.610;2023-12-04T05:24:24;-2.20;99.90
25320;DHT22;13256;49.012;8.610;2023-12-04T05:26:51;-2.30;99.90
25320;DHT22;13256;49.012;8.610;2023-12-04T05:29:20;-2.30;99.90
25320;DHT22;13256;49.012;8.610;2023-12-04T05:31:48;-2.30;99.90
25320;DHT22;13256;49.012;8.610;2023-12-04T05:34:24;-2.30;99.90
25320;DHT22;13256;49.012;8.610;2023-12-04T05:36:57;-2.30;99.90
25320;DHT22;13256;49.012;8.610;2023-12-04T05:39:24;-2.30;99.90
25320;DHT22;13256;49.012;8.610;2023-12-04T05:48:47;-2.30;99.90
25320;DHT22;13256;49.012;8.610;2023-12-04T05:51:19;-2.30;99.90
25320;DHT22;13256;49.012;8.610;2023-12-04T05:53:49;-2.30;99.90
25320;DHT22;13256;49.012;8.610;2023-12-04T05:56:16;-2.30;99.90
25320;DHT22;13256;49.012;8.610;2023-12-04T05:58:43;-2.30;99.90
25320;DHT22;13256;49.012;8.610;2023-12-04T06:01:14;-2.40;99.90
25320;DHT22;13256;49.012;8.610;2023-12-04T06:03:44;-2.40;99.90
25320;DHT22;13256;49.012;8.610;2023-12-04T06:06:11;-2.50;99.90
25320;DHT22;13256;49.012;8.610;2023-12-04T06:08:43;-2.50;99.90
25320;DHT22;13256;49.012;8.610;2023-12-04T06:11:09;-2.60;99.90
25320;DHT22;13256;49.012;8.610;2023-12-04T06:13:40;-2.60;99.90
25320;DHT22;13256;49.012;8.610;2023-12-04T06:16:09;-2.60;99.90
25320;DHT22;13256;49.012;8.610;2023-12-04T06:18:41;-2.70;99.90
25320;DHT22;13256;49.012;8.610;2023-12-04T06:21:08;-2.70;99.90
25320;DHT22;13256;49.012;8.610;2023-12-04T06:23:35;-2.70;99.90
25320;DHT22;13256;49.012;8.610;2023-12-04T06:26:02;-2.70;99.90
25320;DHT22;13256;49.012;8.610;2023-12-04T06:28:29;-2.70;99.90
25320;DHT22;13256;49.012;8.610;2023-12-04T06:30:58;-2.70;99.90
25320;DHT22;13256;49.012;8.610;2023-12-04T06:33:25;-2.70;99.90
25320;DHT22;13256;49.012;8.610;2023-12-04T06:35:53;-2.70;99.90
25320;DHT22;13256;49.012;8.610;2023-12-04T06:38:24;-2.70;99.90
25320;DHT22;13256;49.012;8.610;2023-12-04T06:40:57;-2.60;99.90
25320;DHT22;13256;49.012;8.610;2023-12-04T06:43:24;-2.60;99.90
25320;DHT22;13256;49.012;8.610;2023-12-04T06:45:51;-2.60;99.90
25320;DHT22;13256;49.012;8.610;2023-12-04T06:48:18;-2.60;99.90
25320;DHT22;13256;49.012;8.610;2023-12-04T06:50:48;-2.50;99.90
25320;DHT22;13256;49.012;8.610;2023-12-04T06:53:16;-2.50;99.90
25320;DHT22;13256;49.012;8.610;2023-12-04T06:55:43;-2.40;99.90
25320;DHT22;13256;49.012;8.610;2023-12-04T06:58:16;-2.30;99.90
25320;DHT22;13256;49.012;8.610;2023-12-04T07:00:44;-2.30;99.90
25320;DHT22;13256;49.012;8.610;2023-12-04T07:03:14;-2.30;99.90
25320;DHT22;13256;49.012;8.610;2023-12-04T07:05:45;-2.30;99.90
25320;DHT22;13256;49.012;8.610;2023-12-04T07:08:12;-2.30;99.90
25320;DHT22;13256;49.012;8.610;2023-12-04T07:10:39;-2.30;99.90
25320;DHT22;13256;49.012;8.610;2023-12-04T07:13:06;-2.30;99.90
25320;DHT22;13256;49.012;8.610;2023-12-04T07:15:34;-2.30;99.90
25320;DHT22;13256;49.012;8.610;2023-12-04T07:18:04;-2.30;99.90
25320;DHT22;13256;49.012;8.610;2023-12-04T07:20:31;-2.30;99.90
25320;DHT22;13256;49.012;8.610;2023-12-04T07:22:59;-2.30;99.90
25320;DHT22;13256;49.012;8.610;2023-12-04T07:25:29;-2.20;99.90
25320;DHT22;13256;49.012;8.610;2023-12-04T07:27:56;-2.20;99.90
25320;DHT22;13256;49.012;8.610;2023-12-04T07:30:25;-2.20;99.90
25320;DHT22;13256;49.012;8.610;2023-12-04T07:32:54;-2.10;99.90
25320;DHT22;13256;49.012;8.610;2023-12-04T07:35:50;-2.10;99.90
25320;DHT22;13256;49.012;8.610;2023-12-04T07:38:42;-2.10;99.90
25320;DHT22;13256;49.012;8.610;2023-12-04T07:41:13;-2.00;99.90
25320;DHT22;13256;49.012;8.610;2023-12-04T07:43:48;-2.00;99.90
25320;DHT22;13256;49.012;8.610;2023-12-04T07:46:18;-1.90;99.90
25320;DHT22;13256;49.012;8.610;2023-12-04T07:48:45;-1.90;99.90
25320;DHT22;13256;49.012;8.610;2023-12-04T07:51:16;-1.80;99.90
25320;DHT22;13256;49.012;8.610;2023-12-04T07:53:52;-1.80;99.90
25320;DHT22;13256;49.012;8.610;2023-12-04T07:56:45;-1.70;99.90
25320;DHT22;13256;49.012;8.610;2023-12-04T07:59:12;-1.60;99.90
25320;DHT22;13256;49.012;8.610;2023-12-04T08:01:41;-1.50;99.90
25320;DHT22;13256;49.012;8.610;2023-12-04T08:04:09;-1.50;99.90
25320;DHT22;13256;49.012;8.610;2023-12-04T08:06:36;-1.50;99.90
25320;DHT22;13256;49.012;8.610;2023-12-04T08:09:03;-1.40;99.90
25320;DHT22;13256;49.012;8.610;2023-12-04T08:11:45;-1.40;99.90
25320;DHT22;13256;49.012;8.610;2023-12-04T08:14:17;-1.40;99.90
25320;DHT22;13256;49.012;8.610;2023-12-04T08:16:48;-1.40;99.90
25320;DHT22;13256;49.012;8.610;2023-12-04T08:19:15;-1.40;99.90
25320;DHT22;13256;49.012;8.610;2023-12-04T08:21:42;-1.40;99.90
25320;DHT22;13256;49.012;8.610;2023-12-04T08:24:09;-1.40;99.90
25320;DHT22;13256;49.012;8.610;2023-12-04T08:26:36;-1.40;99.90
25320;DHT22;13256;49.012;8.610;2023-12-04T08:29:03;-1.30;99.90
25320;DHT22;13256;49.012;8.610;2023-12-04T08:31:33;-1.40;99.90
25320;DHT22;13256;49.012;8.610;2023-12-04T08:34:02;-1.30;99.90
25320;DHT22;13256;49.012;8.610;2023-12-04T08:36:31;-1.30;99.90
25320;DHT22;13256;49.012;8.610;2023-12-04T08:39:13;-1.30;99.90
25320;DHT22;13256;49.012;8.610;2023-12-04T08:41:40;-1.20;99.90
25320;DHT22;13256;49.012;8.610;2023-12-04T08:44:17;-1.20;99.90
25320;DHT22;13256;49.012;8.610;2023-12-04T08:46:46;-1.20;99.90
25320;DHT22;13256;49.012;8.610;2023-12-04T08:49:16;-1.10;99.90
25320;DHT22;13256;49.012;8.610;2023-12-04T08:51:43;-1.10;99.90
25320;DHT22;13256;49.012;8.610;2023-12-04T08:54:15;-1.00;99.90
25320;DHT22;13256;49.012;8.610;2023-12-04T08:57:10;-1.00;99.90
25320;DHT22;13256;49.012;8.610;2023-12-04T08:59:37;-1.00;99.90
25320;DHT22;13256;49.012;8.610;2023-12-04T09:02:06;-0.90;99.90
25320;DHT22;13256;49.012;8.610;2023-12-04T09:04:42;-0.90;99.90
25320;DHT22;13256;49.012;8.610;2023-12-04T09:07:10;-0.80;99.90
25320;DHT22;13256;49.012;8.610;2023-12-04T09:09:56;-0.70;99.90
25320;DHT22;13256;49.012;8.610;2023-12-04T09:12:23;-0.70;99.90
25320;DHT22;13256;49.012;8.610;2023-12-04T09:14:53;-0.60;99.90
25320;DHT22;13256;49.012;8.610;2023-12-04T09:17:20;-0.60;99.90
25320;DHT22;13256;49.012;8.610;2023-12-04T09:19:47;-0.60;99.90
25320;DHT22;13256;49.012;8.610;2023-12-04T09:22:14;-0.50;99.90
25320;DHT22;13256;49.012;8.610;2023-12-04T09:24:47;-0.50;99.90
25320;DHT22;13256;49.012;8.610;2023-12-04T09:27:17;-0.50;99.90
25320;DHT22;13256;49.012;8.610;2023-12-04T09:29:44;-0.50;99.90
25320;DHT22;13256;49.012;8.610;2023-12-04T09:32:13;-0.50;99.90
25320;DHT22;13256;49.012;8.610;2023-12-04T09:34:40;-0.50;99.90
25320;DHT22;13256;49.012;8.610;2023-12-04T09:37:07;-0.50;99.90
25320;DHT22;13256;49.012;8.610;2023-12-04T09:39:38;-0.40;99.90
25320;DHT22;13256;49.012;8.610;2023-12-04T09:42:10;-0.40;99.90
25320;DHT22;13256;49.012;8.610;2023-12-04T09:45:08;-0.40;99.90
25320;DHT22;13256;49.012;8.610;2023-12-04T09:47:38;-0.30;99.90
25320;DHT22;13256;49.012;8.610;2023-12-04T09:50:07;-0.30;99.90
25320;DHT22;13256;49.012;8.610;2023-12-04T09:52:37;-0.30;99.90
25320;DHT22;13256;49.012;8.610;2023-12-04T09:55:04;-0.30;99.90
25320;DHT22;13256;49.012;8.610;2023-12-04T09:57:34;-0.20;99.90
25320;DHT22;13256;49.012;8.610;2023-12-04T10:00:04;-0.20;99.90
25320;DHT22;13256;49.012;8.610;2023-12-04T10:02:39;-0.20;99.90
25320;DHT22;13256;49.012;8.610;2023-12-04T10:05:07;-0.10;99.90
25320;DHT22;13256;49.012;8.610;2023-12-04T10:07:37;-0.10;99.90
25320;DHT22;13256;49.012;8.610;2023-12-04T10:10:05;-0.10;99.90
25320;DHT22;13256;49.012;8.610;2023-12-04T10:12:36;-0.10;99.90
25320;DHT22;13256;49.012;8.610;2023-12-04T10:15:11;-0.10;99.90
25320;DHT22;13256;49.012;8.610;2023-12-04T10:17:42;-0.10;99.90
25320;DHT22;13256;49.012;8.610;2023-12-04T10:20:13;-0.10;99.90
25320;DHT22;13256;49.012;8.610;2023-12-04T10:22:55;0.00;99.90
25320;DHT22;13256;49.012;8.610;2023-12-04T10:25:26;0.10;99.90
25320;DHT22;13256;49.012;8.610;2023-12-04T10:28:09;0.20;99.90
25320;DHT22;13256;49.012;8.610;2023-12-04T10:30:40;0.20;99.90
25320;DHT22;13256;49.012;8.610;2023-12-04T10:33:11;0.30;99.90
25320;DHT22;13256;49.012;8.610;2023-12-04T10:35:41;0.40;99.90
25320;DHT22;13256;49.012;8.610;2023-12-04T10:38:11;0.40;99.90
25320;DHT22;13256;49.012;8.610;2023-12-04T10:40:40;0.50;99.90
25320;DHT22;13256;49.012;8.610;2023-12-04T10:43:20;0.50;99.90
25320;DHT22;13256;49.012;8.610;2023-12-04T10:45:48;0.60;99.90
25320;DHT22;13256;49.012;8.610;2023-12-04T10:48:16;0.60;99.90
25320;DHT22;13256;49.012;8.610;2023-12-04T10:50:48;0.60;99.90
25320;DHT22;13256;49.012;8.610;2023-12-04T10:53:16;0.70;99.90
25320;DHT22;13256;49.012;8.610;2023-12-04T10:55:47;0.60;99.90
25320;DHT22;13256;49.012;8.610;2023-12-04T10:58:15;0.60;99.90
25320;DHT22;13256;49.012;8.610;2023-12-04T11:00:48;0.50;99.90
25320;DHT22;13256;49.012;8.610;2023-12-04T11:03:28;0.50;99.90
25320;DHT22;13256;49.012;8.610;2023-12-04T11:06:09;0.50;99.90
25320;DHT22;13256;49.012;8.610;2023-12-04T11:08:42;0.50;99.90
25320;DHT22;13256;49.012;8.610;2023-12-04T11:14:22;0.50;99.90
25320;DHT22;13256;49.012;8.610;2023-12-04T11:17:02;0.50;99.90
25320;DHT22;13256;49.012;8.610;2023-12-04T11:22:26;0.60;99.90
25320;DHT22;13256;49.012;8.610;2023-12-04T11:24:53;0.60;99.90
25320;DHT22;13256;49.012;8.610;2023-12-04T11:27:32;0.60;99.90
25320;DHT22;13256;49.012;8.610;2023-12-04T11:32:45;0.60;99.90
25320;DHT22;13256;49.012;8.610;2023-12-04T11:35:30;0.60;99.90
25320;DHT22;13256;49.012;8.610;2023-12-04T11:37:57;0.60;99.90
25320;DHT22;13256;49.012;8.610;2023-12-04T11:40:25;0.60;99.90
25320;DHT22;13256;49.012;8.610;2023-12-04T11:42:59;0.70;99.90
25320;DHT22;13256;49.012;8.610;2023-12-04T11:45:32;0.70;99.90
25320;DHT22;13256;49.012;8.610;2023-12-04T11:48:01;0.70;99.90
25320;DHT22;13256;49.012;8.610;2023-12-04T11:50:30;0.80;99.90
25320;DHT22;13256;49.012;8.610;2023-12-04T11:52:58;0.80;99.90
25320;DHT22;13256;49.012;8.610;2023-12-04T11:55:26;0.80;99.90
25320;DHT22;13256;49.012;8.610;2023-12-04T11:57:55;0.90;99.90
25320;DHT22;13256;49.012;8.610;2023-12-04T12:00:26;0.90;99.90
25320;DHT22;13256;49.012;8.610;2023-12-04T12:05:49;1.00;99.90
25320;DHT22;13256;49.012;8.610;2023-12-04T12:08:22;1.00;99.90
25320;DHT22;13256;49.012;8.610;2023-12-04T12:10:50;1.00;99.90
25320;DHT22;13256;49.012;8.610;2023-12-04T12:13:17;1.10;99.90
25320;DHT22;13256;49.012;8.610;2023-12-04T12:15:47;1.10;99.90
25320;DHT22;13256;49.012;8.610;2023-12-04T12:18:17;1.10;99.90
25320;DHT22;13256;49.012;8.610;2023-12-04T12:20:47;1.10;99.90
25320;DHT22;13256;49.012;8.610;2023-12-04T12:23:16;1.10;99.90
25320;DHT22;13256;49.012;8.610;2023-12-04T12:25:42;1.20;99.90
25320;DHT22;13256;49.012;8.610;2023-12-04T12:28:10;1.20;99.90
25320;DHT22;13256;49.012;8.610;2023-12-04T12:30:37;1.20;99.90
25320;DHT22;13256;49.012;8.610;2023-12-04T12:33:04;1.20;99.90
25320;DHT22;13256;49.012;8.610;2023-12-04T12:35:33;1.20;99.90
25320;DHT22;13256;49.012;8.610;2023-12-04T12:38:00;1.20;99.90
25320;DHT22;13256;49.012;8.610;2023-12-04T12:40:29;1.20;99.90
25320;DHT22;13256;49.012;8.610;2023-12-04T12:43:11;1.20;99.90
25320;DHT22;13256;49.012;8.610;2023-12-04T12:45:43;1.30;99.90
25320;DHT22;13256;49.012;8.610;2023-12-04T12:48:14;1.30;99.90
25320;DHT22;13256;49.012;8.610;2023-12-04T12:50:46;1.30;99.90
25320;DHT22;13256;49.012;8.610;2023-12-04T12:53:17;1.30;99.90
25320;DHT22;13256;49.012;8.610;2023-12-04T12:55:45;1.30;99.90
25320;DHT22;13256;49.012;8.610;2023-12-04T12:58:12;1.30;99.90
25320;DHT22;13256;49.012;8.610;2023-12-04T13:00:41;1.40;99.90
25320;DHT22;13256;49.012;8.610;2023-12-04T13:03:17;1.40;99.90
25320;DHT22;13256;49.012;8.610;2023-12-04T13:05:47;1.40;99.90
25320;DHT22;13256;49.012;8.610;2023-12-04T13:08:17;1.40;99.90
25320;DHT22;13256;49.012;8.610;2023-12-04T13:10:47;1.40;99.90
25320;DHT22;13256;49.012;8.610;2023-12-04T13:13:18;1.40;99.90
25320;DHT22;13256;49.012;8.610;2023-12-04T13:15:47;1.50;99.90
25320;DHT22;13256;49.012;8.610;2023-12-04T13:18:18;1.50;99.90
25320;DHT22;13256;49.012;8.610;2023-12-04T13:20:46;1.50;99.90
25320;DHT22;13256;49.012;8.610;2023-12-04T13:23:19;1.50;99.90
25320;DHT22;13256;49.012;8.610;2023-12-04T13:25:48;1.50;99.90
25320;DHT22;13256;49.012;8.610;2023-12-04T13:28:15;1.50;99.90
25320;DHT22;13256;49.012;8.610;2023-12-04T13:30:54;1.50;99.90
25320;DHT22;13256;49.012;8.610;2023-12-04T13:33:24;1.60;99.90
25320;DHT22;13256;49.012;8.610;2023-12-04T13:36:00;1.70;99.90
25320;DHT22;13256;49.012;8.610;2023-12-04T13:38:27;1.60;99.90
25320;DHT22;13256;49.012;8.610;2023-12-04T13:41:04;1.70;99.90
25320;DHT22;13256;49.012;8.610;2023-12-04T13:44:32;1.70;99.90
25320;DHT22;13256;49.012;8.610;2023-12-04T13:47:00;1.70;99.90
25320;DHT22;13256;49.012;8.610;2023-12-04T13:49:28;1.70;99.90
25320;DHT22;13256;49.012;8.610;2023-12-04T13:51:55;1.70;99.90
25320;DHT22;13256;49.012;8.610;2023-12-04T13:54:37;1.70;99.90
25320;DHT22;13256;49.012;8.610;2023-12-04T13:57:13;1.80;99.90
25320;DHT22;13256;49.012;8.610;2023-12-04T14:00:41;1.80;99.90
25320;DHT22;13256;49.012;8.610;2023-12-04T14:03:09;1.80;99.90
25320;DHT22;13256;49.012;8.610;2023-12-04T14:05:36;1.80;99.90
25320;DHT22;13256;49.012;8.610;2023-12-04T14:08:04;1.80;99.90
25320;DHT22;13256;49.012;8.610;2023-12-04T14:10:37;1.80;99.90
25320;DHT22;13256;49.012;8.610;2023-12-04T14:13:06;1.70;99.90
25320;DHT22;13256;49.012;8.610;2023-12-04T14:15:35;1.70;99.90
25320;DHT22;13256;49.012;8.610;2023-12-04T14:18:05;1.70;99.90
25320;DHT22;13256;49.012;8.610;2023-12-04T14:20:32;1.70;99.90
25320;DHT22;13256;49.012;8.610;2023-12-04T14:23:00;1.70;99.90
25320;DHT22;13256;49.012;8.610;2023-12-04T14:25:29;1.70;99.90
25320;DHT22;13256;49.012;8.610;2023-12-04T14:28:00;1.80;99.90
25320;DHT22;13256;49.012;8.610;2023-12-04T14:30:29;1.80;99.90
25320;DHT22;13256;49.012;8.610;2023-12-04T14:33:02;1.90;99.90
25320;DHT22;13256;49.012;8.610;2023-12-04T14:35:29;2.00;99.90
25320;DHT22;13256;49.012;8.610;2023-12-04T14:37:58;2.00;99.90
25320;DHT22;13256;49.012;8.610;2023-12-04T14:40:51;2.10;99.90
25320;DHT22;13256;49.012;8.610;2023-12-04T14:43:18;2.00;99.90
25320;DHT22;13256;49.012;8.610;2023-12-04T14:45:49;2.10;99.90
25320;DHT22;13256;49.012;8.610;2023-12-04T14:48:17;2.10;99.90
25320;DHT22;13256;49.012;8.610;2023-12-04T14:50:43;2.10;99.90
25320;DHT22;13256;49.012;8.610;2023-12-04T14:53:12;2.00;99.90
25320;DHT22;13256;49.012;8.610;2023-12-04T14:56:00;2.00;99.90
25320;DHT22;13256;49.012;8.610;2023-12-04T14:58:26;2.00;99.90
25320;DHT22;13256;49.012;8.610;2023-12-04T15:01:13;2.00;99.90
25320;DHT22;13256;49.012;8.610;2023-12-04T15:03:59;2.10;99.90
25320;DHT22;13256;49.012;8.610;2023-12-04T15:07:05;2.10;99.90
25320;DHT22;13256;49.012;8.610;2023-12-04T15:09:50;2.10;99.90
25320;DHT22;13256;49.012;8.610;2023-12-04T15:12:39;2.20;99.90
25320;DHT22;13256;49.012;8.610;2023-12-04T15:15:39;2.30;99.90
25320;DHT22;13256;49.012;8.610;2023-12-04T15:18:31;2.40;99.90
25320;DHT22;13256;49.012;8.610;2023-12-04T15:21:12;2.50;99.90
25320;DHT22;13256;49.012;8.610;2023-12-04T15:23:50;2.60;99.90
25320;DHT22;13256;49.012;8.610;2023-12-04T15:26:20;2.60;99.90
25320;DHT22;13256;49.012;8.610;2023-12-04T15:28:48;2.70;99.90
25320;DHT22;13256;49.012;8.610;2023-12-04T15:31:19;2.80;99.90
25320;DHT22;13256;49.012;8.610;2023-12-04T15:33:49;2.90;99.90
25320;DHT22;13256;49.012;8.610;2023-12-04T15:36:19;2.90;99.90
25320;DHT22;13256;49.012;8.610;2023-12-04T15:38:49;3.00;99.90
25320;DHT22;13256;49.012;8.610;2023-12-04T15:41:19;3.10;99.90
25320;DHT22;13256;49.012;8.610;2023-12-04T15:43:51;3.10;99.90
25320;DHT22;13256;49.012;8.610;2023-12-04T15:46:47;3.20;99.90
25320;DHT22;13256;49.012;8.610;2023-12-04T15:49:14;3.20;99.90
25320;DHT22;13256;49.012;8.610;2023-12-04T15:51:42;3.30;99.90
25320;DHT22;13256;49.012;8.610;2023-12-04T15:54:09;3.20;99.90
25320;DHT22;13256;49.012;8.610;2023-12-04T15:56:37;3.30;99.90
25320;DHT22;13256;49.012;8.610;2023-12-04T15:59:03;3.30;99.90
25320;DHT22;13256;49.012;8.610;2023-12-04T16:01:30;3.20;99.90
25320;DHT22;13256;49.012;8.610;2023-12-04T16:03:57;3.20;99.90
25320;DHT22;13256;49.012;8.610;2023-12-04T16:06:24;3.20;99.90
25320;DHT22;13256;49.012;8.610;2023-12-04T16:08:56;3.10;99.90
25320;DHT22;13256;49.012;8.610;2023-12-04T16:11:24;3.00;99.90
25320;DHT22;13256;49.012;8.610;2023-12-04T16:13:51;3.00;99.90
25320;DHT22;13256;49.012;8.610;2023-12-04T16:16:20;2.90;99.90
25320;DHT22;13256;49.012;8.610;2023-12-04T16:18:47;2.80;99.90
25320;DHT22;13256;49.012;8.610;2023-12-04T16:21:13;2.70;99.90
25320;DHT22;13256;49.012;8.610;2023-12-04T16:23:45;2.70;99.90
25320;DHT22;13256;49.012;8.610;2023-12-04T16:26:18;2.60;99.90
25320;DHT22;13256;49.012;8.610;2023-12-04T16:28:47;2.60;99.90
25320;DHT22;13256;49.012;8.610;2023-12-04T16:31:21;2.50;99.90
25320;DHT22;13256;49.012;8.610;2023-12-04T16:34:15;2.50;99.90
25320;DHT22;13256;49.012;8.610;2023-12-04T16:36:42;2.50;99.90
25320;DHT22;13256;49.012;8.610;2023-12-04T16:39:18;2.50;99.90
25320;DHT22;13256;49.012;8.610;2023-12-04T16:41:48;2.60;99.90
25320;DHT22;13256;49.012;8.610;2023-12-04T16:44:18;2.60;99.90
25320;DHT22;13256;49.012;8.610;2023-12-04T16:46:50;2.60;99.90
25320;DHT22;13256;49.012;8.610;2023-12-04T16:49:25;2.60;99.90
25320;DHT22;13256;49.012;8.610;2023-12-04T16:51:52;2.70;99.90
25320;DHT22;13256;49.012;8.610;2023-12-04T16:54:21;2.80;99.90
25320;DHT22;13256;49.012;8.610;2023-12-04T16:56:50;2.90;99.90
25320;DHT22;13256;49.012;8.610;2023-12-04T16:59:20;2.90;99.90
25320;DHT22;13256;49.012;8.610;2023-12-04T17:01:47;3.00;99.90
25320;DHT22;13256;49.012;8.610;2023-12-04T17:04:14;3.10;99.90
25320;DHT22;13256;49.012;8.610;2023-12-04T17:06:42;3.30;99.90
25320;DHT22;13256;49.012;8.610;2023-12-04T17:09:09;3.30;99.90
25320;DHT22;13256;49.012;8.610;2023-12-04T17:11:42;3.40;99.90
25320;DHT22;13256;49.012;8.610;2023-12-04T17:14:13;3.40;99.90
25320;DHT22;13256;49.012;8.610;2023-12-04T17:16:40;3.40;99.90
25320;DHT22;13256;49.012;8.610;2023-12-04T17:19:11;3.50;99.90
25320;DHT22;13256;49.012;8.610;2023-12-04T17:21:42;3.50;99.90
25320;DHT22;13256;49.012;8.610;2023-12-04T17:24:08;3.50;99.90
25320;DHT22;13256;49.012;8.610;2023-12-04T17:26:54;3.50;99.90
25320;DHT22;13256;49.012;8.610;2023-12-04T17:29:21;3.50;99.90
25320;DHT22;13256;49.012;8.610;2023-12-04T17:31:48;3.40;99.90
25320;DHT22;13256;49.012;8.610;2023-12-04T17:38:41;3.50;99.90
25320;DHT22;13256;49.012;8.610;2023-12-04T17:41:14;3.40;99.90
25320;DHT22;13256;49.012;8.610;2023-12-04T17:43:45;3.40;99.90
25320;DHT22;13256;49.012;8.610;2023-12-04T17:46:12;3.40;99.90
25320;DHT22;13256;49.012;8.610;2023-12-04T17:48:45;3.40;99.90
25320;DHT22;13256;49.012;8.610;2023-12-04T17:51:16;3.40;99.90
25320;DHT22;13256;49.012;8.610;2023-12-04T17:54:09;3.40;99.90
25320;DHT22;13256;49.012;8.610;2023-12-04T17:56:54;3.50;99.90
25320;DHT22;13256;49.012;8.610;2023-12-04T17:59:23;3.50;99.90
25320;DHT22;13256;49.012;8.610;2023-12-04T18:01:52;3.50;99.90
25320;DHT22;13256;49.012;8.610;2023-12-04T18:04:20;3.50;99.90
25320;DHT22;13256;49.012;8.610;2023-12-04T18:06:55;3.50;99.90
25320;DHT22;13256;49.012;8.610;2023-12-04T18:09:51;3.50;99.90
25320;DHT22;13256;49.012;8.610;2023-12-04T18:12:19;3.50;99.90
25320;DHT22;13256;49.012;8.610;2023-12-04T18:14:47;3.50;99.90
25320;DHT22;13256;49.012;8.610;2023-12-04T18:17:17;3.60;99.90
25320;DHT22;13256;49.012;8.610;2023-12-04T18:19:47;3.60;99.90
25320;DHT22;13256;49.012;8.610;2023-12-04T18:22:20;3.60;99.90
25320;DHT22;13256;49.012;8.610;2023-12-04T18:24:53;3.60;99.90
25320;DHT22;13256;49.012;8.610;2023-12-04T18:27:23;3.60;99.90
25320;DHT22;13256;49.012;8.610;2023-12-04T18:29:52;3.60;99.90
25320;DHT22;13256;49.012;8.610;2023-12-04T18:32:19;3.60;99.90
25320;DHT22;13256;49.012;8.610;2023-12-04T18:35:16;3.60;99.90
25320;DHT22;13256;49.012;8.610;2023-12-04T18:38:29;3.60;99.90
25320;DHT22;13256;49.012;8.610;2023-12-04T18:42:28;3.60;99.90
25320;DHT22;13256;49.012;8.610;2023-12-04T18:45:08;3.60;99.90
25320;DHT22;13256;49.012;8.610;2023-12-04T18:47:53;3.60;99.90
25320;DHT22;13256;49.012;8.610;2023-12-04T18:50:54;3.60;99.90
25320;DHT22;13256;49.012;8.610;2023-12-04T18:53:48;3.60;99.90
25320;DHT22;13256;49.012;8.610;2023-12-04T18:56:19;3.60;99.90
25320;DHT22;13256;49.012;8.610;2023-12-04T18:58:49;3.50;99.90
25320;DHT22;13256;49.012;8.610;2023-12-04T19:05:06;3.60;99.90
25320;DHT22;13256;49.012;8.610;2023-12-04T19:08:16;3.60;99.90
25320;DHT22;13256;49.012;8.610;2023-12-04T19:10:52;3.60;99.90
25320;DHT22;13256;49.012;8.610;2023-12-04T19:13:22;3.60;99.90
25320;DHT22;13256;49.012;8.610;2023-12-04T19:16:19;3.60;99.90
25320;DHT22;13256;49.012;8.610;2023-12-04T19:18:56;3.60;99.90
25320;DHT22;13256;49.012;8.610;2023-12-04T19:21:29;3.60;99.90
25320;DHT22;13256;49.012;8.610;2023-12-04T19:24:13;3.60;99.90
25320;DHT22;13256;49.012;8.610;2023-12-04T19:27:13;3.70;99.90
25320;DHT22;13256;49.012;8.610;2023-12-04T19:33:24;3.70;99.90
25320;DHT22;13256;49.012;8.610;2023-12-04T19:35:58;3.70;99.90
25320;DHT22;13256;49.012;8.610;2023-12-04T19:38:28;3.70;99.90
25320;DHT22;13256;49.012;8.610;2023-12-04T19:40:57;3.70;99.90
25320;DHT22;13256;49.012;8.610;2023-12-04T19:43:26;3.70;99.90
25320;DHT22;13256;49.012;8.610;2023-12-04T19:45:55;3.70;99.90
25320;DHT22;13256;49.012;8.610;2023-12-04T19:48:29;3.70;99.90
25320;DHT22;13256;49.012;8.610;2023-12-04T19:51:11;3.70;99.90
25320;DHT22;13256;49.012;8.610;2023-12-04T19:54:10;3.70;99.90
25320;DHT22;13256;49.012;8.610;2023-12-04T19:56:42;3.70;99.90
25320;DHT22;13256;49.012;8.610;2023-12-04T19:59:13;3.70;99.90
25320;DHT22;13256;49.012;8.610;2023-12-04T20:01:44;3.70;99.90
25320;DHT22;13256;49.012;8.610;2023-12-04T20:04:11;3.70;99.90
25320;DHT22;13256;49.012;8.610;2023-12-04T20:06:44;3.60;99.90
25320;DHT22;13256;49.012;8.610;2023-12-04T20:09:14;3.60;99.90
25320;DHT22;13256;49.012;8.610;2023-12-04T20:12:10;3.60;99.90
25320;DHT22;13256;49.012;8.610;2023-12-04T20:14:38;3.50;99.90
25320;DHT22;13256;49.012;8.610;2023-12-04T20:17:10;3.50;99.90
25320;DHT22;13256;49.012;8.610;2023-12-04T20:19:46;3.40;99.90
25320;DHT22;13256;49.012;8.610;2023-12-04T20:22:16;3.40;99.90
25320;DHT22;13256;49.012;8.610;2023-12-04T20:24:50;3.40;99.90
25320;DHT22;13256;49.012;8.610;2023-12-04T20:27:45;3.30;99.90
25320;DHT22;13256;49.012;8.610;2023-12-04T20:30:15;3.30;99.90
25320;DHT22;13256;49.012;8.610;2023-12-04T20:32:45;3.30;99.90
25320;DHT22;13256;49.012;8.610;2023-12-04T20:35:12;3.20;99.90
25320;DHT22;13256;49.012;8.610;2023-12-04T20:37:40;3.20;99.90
25320;DHT22;13256;49.012;8.610;2023-12-04T20:40:11;3.20;99.90
25320;DHT22;13256;49.012;8.610;2023-12-04T20:42:44;3.20;99.90
25320;DHT22;13256;49.012;8.610;2023-12-04T20:45:12;3.10;99.90